Time;durP1;ratioP1;P1;durP2;ratioP2;P2;SDS_P1;SDS_P2;PMS_P1;PMS_P2;Temp;Humidity;BMP_temperature;BMP_pressure;BME280_temperature;BME280_humidity;BME280_pressure;Samples;Min_cycle;Max_cycle;Signal;HPM_P1;HPM_P2
2023/11/07 00:00:04;;;;;;;13.23;3.30;;;;;8.40;100136.00;;;;10307491;28;20311;-73
2023/11/07 00:05:09;;;;;;;8.37;3.40;;;;;8.40;100140.00;;;;10306884;28;20747;-75
2023/11/07 00:10:10;;;;;;;11.93;3.70;;;;;8.40;100143.00;;;;10318543;28;20227;-74
2023/11/07 00:15:13;;;;;;;11.33;3.60;;;;;8.40;100151.00;;;;10306393;28;20232;-74
2023/11/07 00:20:14;;;;;;;12.60;3.80;;;;;8.40;100158.00;;;;10323191;28;20318;-73
2023/11/07 00:25:16;;;;;;;10.07;4.20;;;;;8.40;100157.00;;;;10308492;28;20931;-70
2023/11/07 00:30:17;;;;;;;14.37;4.47;;;;;8.30;100158.00;;;;10298318;28;20304;-69
2023/11/07 00:35:19;;;;;;;9.67;3.90;;;;;8.30;100164.00;;;;10317316;28;20307;-70
2023/11/07 00:40:20;;;;;;;10.57;3.70;;;;;8.20;100167.00;;;;10308523;28;20323;-70
2023/11/07 00:45:21;;;;;;;11.67;3.97;;;;;8.20;100173.00;;;;10315240;28;20331;-70
2023/11/07 00:50:23;;;;;;;13.37;4.03;;;;;8.10;100172.00;;;;10315506;28;20916;-70
2023/11/07 00:55:24;;;;;;;14.83;4.17;;;;;8.10;100189.00;;;;10297780;28;20307;-70
2023/11/07 01:00:27;;;;;;;14.77;3.83;;;;;8.20;100191.00;;;;10318116;28;20215;-69
2023/11/07 01:05:29;;;;;;;15.67;4.70;;;;;8.20;100194.00;;;;10316681;28;20307;-70
2023/11/07 01:10:32;;;;;;;14.93;4.20;;;;;8.20;100192.00;;;;10319083;28;20223;-70
2023/11/07 01:15:33;;;;;;;10.77;4.50;;;;;8.20;100191.00;;;;10301484;28;20232;-69
2023/11/07 01:20:35;;;;;;;13.83;4.67;;;;;8.10;100196.00;;;;10320386;28;20318;-70
2023/11/07 01:25:36;;;;;;;12.17;3.80;;;;;8.20;100210.00;;;;10314034;28;20224;-71
2023/11/07 01:30:37;;;;;;;11.10;4.83;;;;;8.20;100198.00;;;;10303789;28;20307;-70
2023/11/07 01:35:38;;;;;;;10.97;3.83;;;;;8.20;100206.00;;;;10312740;28;20224;-71
2023/11/07 01:40:40;;;;;;;11.77;4.47;;;;;8.30;100212.00;;;;10311061;28;20223;-71
2023/11/07 01:45:41;;;;;;;11.57;4.70;;;;;8.40;100209.00;;;;10313425;28;20235;-71
2023/11/07 01:50:43;;;;;;;10.83;5.67;;;;;8.50;100209.00;;;;10313054;28;20220;-71
2023/11/07 01:55:44;;;;;;;14.27;5.27;;;;;8.60;100224.00;;;;10316080;28;20239;-71
2023/11/07 02:00:46;;;;;;;11.27;4.00;;;;;8.70;100231.00;;;;10313724;28;20302;-71
2023/11/07 02:05:47;;;;;;;14.77;5.20;;;;;8.80;100237.00;;;;10311100;28;20311;-72
2023/11/07 02:10:49;;;;;;;11.77;5.23;;;;;8.90;100224.00;;;;10317077;28;20211;-71
2023/11/07 02:15:50;;;;;;;16.53;4.67;;;;;8.90;100236.00;;;;10316452;28;20677;-71
2023/11/07 02:20:51;;;;;;;10.67;4.73;;;;;8.80;100239.00;;;;10313945;28;20285;-71
2023/11/07 02:25:53;;;;;;;13.67;5.13;;;;;8.80;100236.00;;;;10313835;28;20220;-71
2023/11/07 02:30:54;;;;;;;11.67;5.30;;;;;8.70;100234.00;;;;10314956;28;20294;-71
2023/11/07 02:35:55;;;;;;;19.90;5.20;;;;;8.70;100237.00;;;;10323907;28;20232;-71
2023/11/07 02:40:56;;;;;;;15.07;5.50;;;;;8.50;100249.00;;;;10313546;28;20229;-72
2023/11/07 02:45:58;;;;;;;12.57;5.07;;;;;8.40;100238.00;;;;10314230;28;20230;-71
2023/11/07 02:50:59;;;;;;;13.97;5.10;;;;;8.40;100226.00;;;;10313608;28;20246;-71
2023/11/07 02:56:01;;;;;;;13.93;5.10;;;;;8.40;100224.00;;;;10297725;28;20227;-71
2023/11/07 03:01:02;;;;;;;9.90;5.00;;;;;8.30;100222.00;;;;10319235;28;20354;-71
2023/11/07 03:06:04;;;;;;;13.33;4.40;;;;;8.30;100218.00;;;;10328679;28;20330;-71
2023/11/07 03:11:07;;;;;;;10.63;4.57;;;;;8.20;100224.00;;;;10313596;28;20223;-72
2023/11/07 03:16:09;;;;;;;11.07;5.47;;;;;8.20;100245.00;;;;10311546;28;20241;-71
2023/11/07 03:21:10;;;;;;;11.03;5.50;;;;;8.30;100238.00;;;;10317626;28;20316;-71
2023/11/07 03:26:11;;;;;;;15.77;5.77;;;;;8.30;100238.00;;;;10317878;28;20713;-72
2023/11/07 03:31:12;;;;;;;15.93;5.67;;;;;8.30;100230.00;;;;10309771;28;20224;-72
2023/11/07 03:36:15;;;;;;;12.20;5.10;;;;;8.20;100237.00;;;;10311248;28;20348;-71
2023/11/07 03:41:16;;;;;;;13.37;5.90;;;;;8.20;100226.00;;;;10304683;28;20923;-71
2023/11/07 03:46:17;;;;;;;12.23;5.20;;;;;8.20;100228.00;;;;10313897;28;20284;-72
2023/11/07 03:51:19;;;;;;;13.77;5.10;;;;;8.10;100230.00;;;;10321045;28;20226;-71
2023/11/07 03:56:20;;;;;;;7.40;4.60;;;;;8.00;100233.00;;;;10310370;28;20344;-72
2023/11/07 04:01:21;;;;;;;11.47;5.83;;;;;8.00;100243.00;;;;10313853;28;20224;-71
2023/11/07 04:06:22;;;;;;;11.27;5.00;;;;;8.00;100256.00;;;;10315255;28;20229;-71
2023/11/07 04:11:23;;;;;;;11.33;5.00;;;;;8.00;100265.00;;;;10300991;28;20228;-72
2023/11/07 04:16:26;;;;;;;8.20;4.30;;;;;8.00;100260.00;;;;10308634;28;20224;-72
2023/11/07 04:21:27;;;;;;;12.33;4.77;;;;;7.90;100262.00;;;;10304933;28;20675;-71
2023/11/07 04:26:28;;;;;;;6.47;4.07;;;;;7.90;100263.00;;;;10312354;28;20231;-76
2023/11/07 04:31:29;;;;;;;7.57;4.50;;;;;7.80;100271.00;;;;10323205;28;20233;-76
2023/11/07 04:36:31;;;;;;;9.90;4.30;;;;;7.90;100276.00;;;;10323527;28;20869;-76
2023/11/07 04:41:33;;;;;;;8.70;4.63;;;;;8.00;100270.00;;;;10318533;28;20266;-77
2023/11/07 04:46:39;;;;;;;10.20;4.83;;;;;8.00;100268.00;;;;10312469;28;20227;-76
2023/11/07 04:51:40;;;;;;;11.27;4.50;;;;;8.00;100277.00;;;;10327921;28;20782;-77
2023/11/07 04:56:44;;;;;;;9.70;4.73;;;;;8.00;100255.00;;;;10316890;28;20265;-75
2023/11/07 05:01:48;;;;;;;11.47;6.30;;;;;8.00;100247.00;;;;10317181;28;20224;-76
2023/11/07 05:06:49;;;;;;;8.50;5.50;;;;;8.00;100257.00;;;;10315781;28;20722;-77
2023/11/07 05:11:50;;;;;;;11.93;5.40;;;;;8.10;100254.00;;;;10312885;28;20570;-77
2023/11/07 05:16:51;;;;;;;9.77;4.60;;;;;8.20;100265.00;;;;10320242;28;20224;-76
2023/11/07 05:21:53;;;;;;;11.20;4.60;;;;;8.30;100266.00;;;;10321833;28;20232;-78
2023/11/07 05:26:54;;;;;;;10.03;4.50;;;;;8.30;100267.00;;;;10316615;28;20215;-78
2023/11/07 05:31:55;;;;;;;8.03;4.67;;;;;8.40;100262.00;;;;10320091;28;20812;-78
2023/11/07 05:36:56;;;;;;;9.90;5.00;;;;;8.40;100260.00;;;;10325655;28;20314;-72
2023/11/07 05:41:58;;;;;;;11.77;4.80;;;;;8.30;100263.00;;;;10320554;28;20254;-72
2023/11/07 05:47:00;;;;;;;11.63;4.87;;;;;8.30;100274.00;;;;10320928;28;20227;-73
2023/11/07 05:52:03;;;;;;;9.87;4.73;;;;;8.10;100267.00;;;;10315813;28;20305;-72
2023/11/07 05:57:04;;;;;;;12.43;5.33;;;;;8.00;100268.00;;;;10306161;28;20223;-73
2023/11/07 06:02:06;;;;;;;14.37;5.90;;;;;8.00;100261.00;;;;10337535;28;20366;-72
2023/11/07 06:07:07;;;;;;;12.83;5.90;;;;;8.00;100275.00;;;;10331299;28;20231;-72
2023/11/07 06:12:09;;;;;;;9.03;5.93;;;;;7.90;100278.00;;;;10322202;28;20330;-73
2023/11/07 06:17:13;;;;;;;9.57;5.70;;;;;8.00;100281.00;;;;10317639;28;20260;-72
2023/11/07 06:22:14;;;;;;;10.40;6.53;;;;;8.00;100280.00;;;;10315532;28;20216;-72
2023/11/07 06:27:15;;;;;;;18.27;7.17;;;;;8.00;100278.00;;;;10328414;28;20312;-72
2023/11/07 06:32:17;;;;;;;11.07;6.40;;;;;7.90;100269.00;;;;10314190;28;20223;-72
2023/11/07 06:37:18;;;;;;;11.70;5.93;;;;;7.80;100278.00;;;;10323181;28;20224;-72
2023/11/07 06:42:19;;;;;;;7.30;5.30;;;;;7.80;100285.00;;;;10307175;28;20307;-72
2023/11/07 06:47:21;;;;;;;7.03;4.07;;;;;7.80;100291.00;;;;10310444;28;20228;-72
2023/11/07 06:52:22;;;;;;;10.37;3.90;;;;;7.80;100300.00;;;;10316332;28;20223;-72
2023/11/07 06:57:23;;;;;;;7.93;3.60;;;;;7.80;100300.00;;;;10299247;28;20228;-73
2023/11/07 07:02:24;;;;;;;8.43;3.40;;;;;7.80;100305.00;;;;10294913;28;20274;-72
2023/11/07 07:07:26;;;;;;;9.73;3.13;;;;;7.80;100319.00;;;;10309275;28;20216;-73
2023/11/07 07:12:28;;;;;;;8.30;2.73;;;;;7.90;100338.00;;;;10320302;28;20230;-72
2023/11/07 07:17:29;;;;;;;4.80;2.30;;;;;7.90;100337.00;;;;10279473;28;20231;-72
2023/11/07 07:22:34;;;;;;;8.50;2.40;;;;;7.90;100332.00;;;;10313528;28;20316;-73
2023/11/07 07:27:35;;;;;;;3.17;1.97;;;;;8.00;100338.00;;;;10328980;28;20227;-72
2023/11/07 07:32:38;;;;;;;7.87;2.20;;;;;8.10;100347.00;;;;10314656;28;20311;-72
2023/11/07 07:37:40;;;;;;;7.87;2.37;;;;;8.20;100350.00;;;;10312665;28;20251;-72
2023/11/07 07:42:44;;;;;;;4.50;2.00;;;;;8.40;100347.00;;;;10329280;28;20668;-73
2023/11/07 07:47:46;;;;;;;7.73;2.20;;;;;8.60;100358.00;;;;10301125;28;20671;-73
2023/11/07 07:52:53;;;;;;;6.73;2.43;;;;;9.00;100352.00;;;;10298867;28;20224;-77
2023/11/07 07:57:55;;;;;;;6.67;2.23;;;;;9.50;100359.00;;;;10307700;28;20237;-77
2023/11/07 08:02:58;;;;;;;7.27;2.60;;;;;9.90;100362.00;;;;10319949;28;20259;-75
2023/11/07 08:07:59;;;;;;;6.70;2.43;;;;;10.30;100360.00;;;;10328113;28;20231;-76
2023/11/07 08:13:05;;;;;;;7.73;2.20;;;;;10.50;100370.00;;;;10307666;28;20972;-76
2023/11/07 08:18:06;;;;;;;4.97;2.20;;;;;10.60;100377.00;;;;10291049;28;20946;-76
2023/11/07 08:23:07;;;;;;;4.10;2.30;;;;;10.40;100371.00;;;;10292982;28;20327;-76
2023/11/07 08:28:09;;;;;;;9.23;2.40;;;;;10.10;100375.00;;;;10311200;28;20234;-76
2023/11/07 08:33:12;;;;;;;4.43;2.50;;;;;10.00;100378.00;;;;10326310;28;20263;-76
2023/11/07 08:38:13;;;;;;;5.30;2.60;;;;;9.90;100385.00;;;;10311411;28;20232;-75
2023/11/07 08:43:15;;;;;;;6.87;3.17;;;;;9.90;100389.00;;;;10324718;28;20705;-76
2023/11/07 08:48:16;;;;;;;6.63;2.83;;;;;9.80;100401.00;;;;10315711;28;20936;-77
2023/11/07 08:53:18;;;;;;;6.43;2.80;;;;;10.40;100401.00;;;;10318689;28;20930;-75
2023/11/07 08:58:19;;;;;;;7.70;2.97;;;;;10.70;100406.00;;;;10309274;28;20223;-76
2023/11/07 09:03:20;;;;;;;6.50;2.97;;;;;11.20;100415.00;;;;10323933;28;20247;-70
2023/11/07 09:08:22;;;;;;;4.82;2.20;;;;;11.50;100425.00;;;;10303315;28;20319;-70
2023/11/07 09:13:27;;;;;;;3.90;2.35;;;;;11.50;100438.00;;;;10315680;28;20253;-71
2023/11/07 09:18:28;;;;;;;5.13;2.05;;;;;11.30;100441.00;;;;10313382;28;20232;-70
2023/11/07 09:23:29;;;;;;;4.35;2.45;;;;;10.90;100452.00;;;;10310627;28;21614;-71
2023/11/07 09:28:30;;;;;;;5.63;2.30;;;;;10.70;100458.00;;;;10309214;28;20254;-71
2023/11/07 09:33:31;;;;;;;5.43;2.90;;;;;10.40;100459.00;;;;10305785;28;20238;-71
2023/11/07 09:38:33;;;;;;;6.03;1.97;;;;;10.20;100454.00;;;;10311554;28;20251;-71
2023/11/07 09:43:51;;;;;;;3.53;1.90;;;;;10.20;100454.00;;;;10308357;28;20224;-71
2023/11/07 09:48:53;;;;;;;6.67;2.80;;;;;10.70;100458.00;;;;10310199;28;20267;-70
2023/11/07 09:53:56;;;;;;;4.07;2.30;;;;;11.00;100460.00;;;;10301911;28;20228;-71
2023/11/07 09:59:08;;;;;;;4.53;2.50;;;;;11.40;100475.00;;;;10306496;28;20232;-71
2023/11/07 10:04:12;;;;;;;4.30;2.03;;;;;11.50;100489.00;;;;10314553;28;20274;-71
2023/11/07 10:09:16;;;;;;;3.33;1.70;;;;;11.40;100491.00;;;;10307705;28;20251;-70
2023/11/07 10:14:18;;;;;;;5.55;1.83;;;;;11.50;100490.00;;;;10308321;28;20227;-74
2023/11/07 10:19:22;;;;;;;3.77;1.63;;;;;12.10;100503.00;;;;10310913;28;20357;-74
2023/11/07 10:24:23;;;;;;;1.92;1.50;;;;;12.20;100501.00;;;;10313073;28;20216;-75
2023/11/07 10:29:30;;;;;;;4.95;2.00;;;;;12.10;100511.00;;;;10315230;28;20633;-74
2023/11/07 10:34:33;;;;;;;3.80;1.83;;;;;12.00;100509.00;;;;10322359;28;20239;-74
2023/11/07 10:39:35;;;;;;;4.18;1.70;;;;;11.90;100511.00;;;;10311721;28;20232;-75
2023/11/07 10:44:36;;;;;;;2.40;1.90;;;;;11.70;100511.00;;;;10318114;28;20238;-74
2023/11/07 10:49:38;;;;;;;2.97;1.38;;;;;12.00;100507.00;;;;10305670;28;20231;-74
2023/11/07 10:54:39;;;;;;;1.88;1.40;;;;;12.10;100509.00;;;;10309964;28;20232;-75
2023/11/07 10:59:44;;;;;;;3.95;1.42;;;;;12.10;100512.00;;;;10316030;28;20340;-74
2023/11/07 11:04:48;;;;;;;4.32;1.95;;;;;12.20;100515.00;;;;10310800;28;20250;-74
2023/11/07 11:09:50;;;;;;;3.42;1.40;;;;;12.80;100514.00;;;;10315858;28;20313;-74
2023/11/07 11:14:52;;;;;;;3.78;1.90;;;;;13.50;100525.00;;;;10312427;28;21179;-74
2023/11/07 11:20:15;;;;;;;2.08;1.35;;;;;14.20;100528.00;;;;10315822;28;20219;-74
2023/11/07 11:25:32;;;;;;;2.55;1.10;;;;;14.40;100526.00;;;;10316018;28;20802;-75
2023/11/07 11:30:38;;;;;;;8.07;1.77;;;;;14.60;100536.00;;;;10308796;28;20274;-76
2023/11/07 11:35:41;;;;;;;4.82;1.20;;;;;14.50;100537.00;;;;10311011;28;20232;-75
2023/11/07 11:41:02;;;;;;;3.78;1.30;;;;;13.90;100528.00;;;;10314941;28;20881;-76
2023/11/07 11:46:15;;;;;;;3.92;1.20;;;;;14.00;100538.00;;;;10302190;28;20227;-75
2023/11/07 11:51:39;;;;;;;2.95;1.30;;;;;13.90;100534.00;;;;10311765;28;20212;-76
2023/11/07 11:56:50;;;;;;;4.03;1.90;;;;;13.70;100533.00;;;;10307486;28;20228;-75
2023/11/07 12:01:58;;;;;;;5.22;1.08;;;;;14.60;100521.00;;;;10311821;28;20219;-76
2023/11/07 12:07:08;;;;;;;1.13;1.00;;;;;14.50;100525.00;;;;10307158;28;20246;-75
2023/11/07 12:12:15;;;;;;;2.33;1.20;;;;;13.90;100524.00;;;;10316916;28;20220;-76
2023/11/07 12:17:16;;;;;;;2.47;1.25;;;;;13.30;100524.00;;;;10315487;28;20228;-75
2023/11/07 12:22:18;;;;;;;2.92;1.67;;;;;13.00;100510.00;;;;10324706;28;20273;-76
2023/11/07 12:27:19;;;;;;;2.95;1.20;;;;;12.50;100498.00;;;;10310977;28;20869;-76
2023/11/07 12:32:20;;;;;;;3.47;1.33;;;;;12.80;100490.00;;;;10316570;28;20220;-75
2023/11/07 12:37:24;;;;;;;1.88;1.13;;;;;13.20;100493.00;;;;10300344;28;20322;-73
2023/11/07 12:42:25;;;;;;;3.65;1.02;;;;;13.50;100488.00;;;;10311160;28;20223;-73
2023/11/07 12:47:29;;;;;;;1.60;0.82;;;;;13.90;100492.00;;;;10310081;28;20223;-73
2023/11/07 12:52:30;;;;;;;1.70;0.70;;;;;13.50;100501.00;;;;10307544;28;20223;-73
2023/11/07 12:57:36;;;;;;;1.35;0.68;;;;;13.30;100491.00;;;;10318677;28;20733;-73
2023/11/07 13:02:39;;;;;;;1.10;1.00;;;;;13.30;100488.00;;;;10307361;28;20229;-74
2023/11/07 13:07:40;;;;;;;1.70;0.70;;;;;13.40;100483.00;;;;10307185;28;20243;-73
2023/11/07 13:12:42;;;;;;;1.25;0.82;;;;;12.90;100484.00;;;;10305189;28;20254;-73
2023/11/07 13:17:45;;;;;;;2.80;1.00;;;;;12.80;100481.00;;;;10309149;28;20231;-73
2023/11/07 13:22:47;;;;;;;5.72;0.88;;;;;13.00;100493.00;;;;10302891;28;20234;-74
2023/11/07 13:27:52;;;;;;;3.92;0.90;;;;;13.20;100486.00;;;;10302665;28;20231;-73
2023/11/07 13:32:53;;;;;;;3.75;1.15;;;;;12.80;100498.00;;;;10324493;28;20311;-73
2023/11/07 13:37:55;;;;;;;1.60;0.80;;;;;12.40;100502.00;;;;10318900;28;20222;-73
2023/11/07 13:42:56;;;;;;;2.08;0.80;;;;;12.30;100498.00;;;;10313337;28;20697;-75
2023/11/07 13:48:00;;;;;;;4.75;1.00;;;;;12.50;100491.00;;;;10315996;28;20960;-75
2023/11/07 13:53:02;;;;;;;3.15;1.40;;;;;12.70;100503.00;;;;10317289;28;20227;-75
2023/11/07 13:58:03;;;;;;;3.95;1.02;;;;;12.40;100509.00;;;;10326543;28;20943;-75
2023/11/07 14:03:04;;;;;;;1.90;0.93;;;;;12.30;100500.00;;;;10306082;28;20562;-76
2023/11/07 14:08:05;;;;;;;2.55;1.05;;;;;12.30;100493.00;;;;10318685;28;20224;-75
2023/11/07 14:13:06;;;;;;;2.33;0.88;;;;;12.30;100499.00;;;;10311017;28;20323;-75
2023/11/07 14:18:08;;;;;;;5.72;1.00;;;;;12.40;100501.00;;;;10315137;28;20709;-75
2023/11/07 14:23:20;;;;;;;3.67;0.80;;;;;12.00;100495.00;;;;10308492;28;20315;-75
2023/11/07 14:28:21;;;;;;;2.20;1.00;;;;;11.60;100503.00;;;;10312681;28;20232;-75
2023/11/07 14:33:23;;;;;;;4.65;1.20;;;;;11.40;100498.00;;;;10340593;28;20879;-75
2023/11/07 14:38:28;;;;;;;1.40;0.95;;;;;11.10;100490.00;;;;10318781;28;20516;-74
2023/11/07 14:43:29;;;;;;;1.80;1.00;;;;;11.00;100487.00;;;;10308591;28;20223;-74
2023/11/07 14:48:31;;;;;;;5.33;1.23;;;;;11.20;100485.00;;;;10308648;28;20225;-73
2023/11/07 14:53:34;;;;;;;2.20;0.73;;;;;11.30;100500.00;;;;10330373;28;20973;-69
2023/11/07 14:58:35;;;;;;;2.13;0.87;;;;;11.20;100512.00;;;;10326108;28;20220;-69
2023/11/07 15:03:38;;;;;;;1.03;0.40;;;;;10.90;100500.00;;;;10313252;28;20227;-71
2023/11/07 15:08:39;;;;;;;3.20;1.07;;;;;10.60;100520.00;;;;10315827;28;20282;-69
2023/11/07 15:13:41;;;;;;;2.53;0.50;;;;;10.40;100502.00;;;;10313231;28;20224;-69
2023/11/07 15:18:43;;;;;;;3.67;0.70;;;;;10.40;100511.00;;;;10312680;28;21509;-69
2023/11/07 15:23:44;;;;;;;2.30;1.10;;;;;10.30;100512.00;;;;10334142;28;20238;-70
2023/11/07 15:28:45;;;;;;;1.10;0.70;;;;;10.20;100516.00;;;;10313993;28;20235;-70
2023/11/07 15:33:47;;;;;;;1.27;0.70;;;;;10.00;100520.00;;;;10300929;28;20330;-69
2023/11/07 15:38:48;;;;;;;1.90;0.80;;;;;9.90;100510.00;;;;10313163;28;20224;-70
2023/11/07 15:43:51;;;;;;;2.03;0.60;;;;;9.80;100515.00;;;;10308636;28;20224;-69
2023/11/07 15:48:52;;;;;;;2.80;0.70;;;;;9.60;100508.00;;;;10297337;28;20293;-70
2023/11/07 15:53:53;;;;;;;2.40;0.80;;;;;9.40;100504.00;;;;10315226;28;20919;-70
2023/11/07 15:58:55;;;;;;;1.37;0.60;;;;;9.20;100515.00;;;;10313740;28;20292;-70
2023/11/07 16:03:58;;;;;;;1.93;0.80;;;;;9.20;100518.00;;;;10332785;28;20237;-73
2023/11/07 16:08:59;;;;;;;2.93;0.73;;;;;9.10;100509.00;;;;10334548;28;20302;-73
2023/11/07 16:14:01;;;;;;;0.70;0.70;;;;;9.00;100514.00;;;;10327852;28;20231;-73
2023/11/07 16:19:02;;;;;;;1.73;1.00;;;;;8.90;100518.00;;;;10317344;28;20736;-74
2023/11/07 16:24:04;;;;;;;1.03;0.90;;;;;8.80;100520.00;;;;10316995;28;20288;-74
2023/11/07 16:29:05;;;;;;;4.83;0.80;;;;;8.80;100521.00;;;;10314053;28;20246;-73
2023/11/07 16:34:06;;;;;;;2.70;0.90;;;;;8.80;100523.00;;;;10316575;28;20231;-72
2023/11/07 16:39:08;;;;;;;2.67;1.00;;;;;8.70;100525.00;;;;10314357;28;20224;-74
2023/11/07 16:44:09;;;;;;;1.67;0.80;;;;;8.70;100511.00;;;;10313149;28;20302;-74
2023/11/07 16:49:11;;;;;;;2.00;0.97;;;;;8.70;100523.00;;;;10320694;28;20219;-74
2023/11/07 16:54:12;;;;;;;3.53;1.27;;;;;8.70;100524.00;;;;10312619;28;20315;-74
2023/11/07 16:59:13;;;;;;;4.10;1.27;;;;;8.60;100525.00;;;;10326215;28;20227;-73
2023/11/07 17:04:15;;;;;;;4.87;1.30;;;;;8.60;100520.00;;;;10315109;28;20444;-74
2023/11/07 17:09:16;;;;;;;3.90;1.03;;;;;8.60;100524.00;;;;10324651;28;20220;-74
2023/11/07 17:14:19;;;;;;;4.83;1.60;;;;;8.60;100533.00;;;;10329634;28;20231;-74
2023/11/07 17:19:20;;;;;;;4.97;1.40;;;;;8.60;100528.00;;;;10322208;28;20289;-73
2023/11/07 17:24:23;;;;;;;7.60;1.80;;;;;8.60;100537.00;;;;10326371;28;20254;-73
2023/11/07 17:29:27;;;;;;;4.10;1.33;;;;;8.60;100531.00;;;;10321951;28;20231;-73
2023/11/07 17:34:28;;;;;;;4.63;1.37;;;;;8.60;100539.00;;;;10323025;28;20247;-73
2023/11/07 17:39:33;;;;;;;3.83;1.60;;;;;8.50;100544.00;;;;10320781;28;20294;-74
2023/11/07 17:44:37;;;;;;;2.63;1.40;;;;;8.40;100540.00;;;;10316370;28;20251;-72
2023/11/07 17:49:39;;;;;;;5.33;1.23;;;;;8.40;100541.00;;;;10317502;28;20342;-74
2023/11/07 17:54:40;;;;;;;3.27;1.30;;;;;8.40;100540.00;;;;10327696;28;20254;-74
2023/11/07 17:59:41;;;;;;;7.93;1.57;;;;;8.40;100544.00;;;;10315191;28;20228;-74
2023/11/07 18:04:42;;;;;;;4.40;1.73;;;;;8.40;100549.00;;;;10338547;28;20310;-73
2023/11/07 18:09:43;;;;;;;4.83;1.70;;;;;8.30;100562.00;;;;10309490;28;20254;-73
2023/11/07 18:14:44;;;;;;;6.07;1.90;;;;;8.30;100550.00;;;;10314202;28;20250;-73
2023/11/07 18:19:46;;;;;;;5.07;1.77;;;;;8.30;100551.00;;;;10315974;28;20307;-73
2023/11/07 18:24:47;;;;;;;4.83;1.73;;;;;8.30;100569.00;;;;10318659;28;20224;-74
2023/11/07 18:29:49;;;;;;;3.60;1.60;;;;;8.30;100554.00;;;;10326275;28;20792;-73
2023/11/07 18:34:50;;;;;;;4.03;1.70;;;;;8.20;100578.00;;;;10314548;28;20694;-74
2023/11/07 18:39:51;;;;;;;7.37;2.13;;;;;8.20;100576.00;;;;10338198;28;20249;-74
2023/11/07 18:44:52;;;;;;;4.60;1.47;;;;;8.20;100575.00;;;;10317781;28;20223;-74
2023/11/07 18:49:54;;;;;;;3.03;1.60;;;;;8.20;100568.00;;;;10312369;28;20984;-74
2023/11/07 18:54:55;;;;;;;4.60;1.70;;;;;8.20;100582.00;;;;10313571;28;20285;-74
2023/11/07 18:59:56;;;;;;;7.53;2.03;;;;;8.30;100570.00;;;;10321945;28;20227;-74
2023/11/07 19:04:58;;;;;;;11.63;1.97;;;;;8.30;100576.00;;;;10314108;28;20223;-74
2023/11/07 19:09:59;;;;;;;4.67;1.97;;;;;8.30;100563.00;;;;10328790;28;20220;-73
2023/11/07 19:15:01;;;;;;;6.07;2.23;;;;;8.20;100564.00;;;;10318823;28;20686;-74
2023/11/07 19:20:03;;;;;;;3.93;1.60;;;;;8.20;100560.00;;;;10320429;28;20230;-73
2023/11/07 19:25:05;;;;;;;3.60;1.90;;;;;8.20;100567.00;;;;10309500;28;20227;-74
2023/11/07 19:30:10;;;;;;;5.40;1.70;;;;;8.10;100572.00;;;;10304954;28;20259;-74
2023/11/07 19:35:12;;;;;;;3.60;1.60;;;;;8.10;100573.00;;;;10313082;28;20239;-69
2023/11/07 19:40:18;;;;;;;5.57;1.90;;;;;8.10;100577.00;;;;10326683;28;21907;-70
2023/11/07 19:45:19;;;;;;;5.97;1.77;;;;;8.00;100582.00;;;;10304849;28;20281;-69
2023/11/07 19:50:21;;;;;;;5.87;1.83;;;;;8.00;100583.00;;;;10298909;28;20245;-69
2023/11/07 19:55:23;;;;;;;4.70;1.90;;;;;7.90;100586.00;;;;10304444;28;20307;-69
2023/11/07 20:00:25;;;;;;;5.90;2.03;;;;;7.80;100595.00;;;;10307367;28;20220;-69
2023/11/07 20:05:26;;;;;;;5.87;2.00;;;;;7.80;100590.00;;;;10309149;28;20897;-70
2023/11/07 20:10:27;;;;;;;6.20;1.87;;;;;7.80;100605.00;;;;10314453;28;20222;-70
2023/11/07 20:15:28;;;;;;;5.10;1.97;;;;;7.80;100609.00;;;;10319966;28;20217;-69
2023/11/07 20:20:29;;;;;;;6.33;2.50;;;;;7.80;100614.00;;;;10287457;28;21264;-70
2023/11/07 20:25:30;;;;;;;6.97;2.00;;;;;7.80;100610.00;;;;10302912;28;20235;-70
2023/11/07 20:30:31;;;;;;;4.83;1.80;;;;;7.80;100613.00;;;;10309634;28;20216;-70
2023/11/07 20:35:34;;;;;;;3.10;1.90;;;;;7.80;100620.00;;;;10284582;28;20231;-70
2023/11/07 20:40:35;;;;;;;6.53;1.90;;;;;7.80;100613.00;;;;10298228;28;20228;-70
2023/11/07 20:45:37;;;;;;;3.57;2.07;;;;;7.80;100619.00;;;;10314938;28;20987;-68
2023/11/07 20:50:39;;;;;;;9.60;2.30;;;;;7.80;100629.00;;;;10322352;28;20224;-70
2023/11/07 20:55:40;;;;;;;7.20;1.87;;;;;7.70;100631.00;;;;10297706;28;20231;-69
2023/11/07 21:00:41;;;;;;;3.13;1.73;;;;;7.70;100630.00;;;;10317010;28;20247;-69
2023/11/07 21:05:42;;;;;;;7.03;1.93;;;;;7.70;100634.00;;;;10306770;28;20236;-71
2023/11/07 21:10:44;;;;;;;3.33;1.97;;;;;7.70;100634.00;;;;10321764;28;20421;-70
2023/11/07 21:15:46;;;;;;;3.20;1.80;;;;;7.80;100638.00;;;;10316408;28;20224;-69
2023/11/07 21:20:47;;;;;;;3.60;1.90;;;;;7.80;100634.00;;;;10312167;28;20773;-69
2023/11/07 21:25:48;;;;;;;2.83;1.73;;;;;7.80;100642.00;;;;10313749;28;20247;-69
2023/11/07 21:30:49;;;;;;;2.47;1.50;;;;;7.80;100637.00;;;;10324882;28;20247;-69
2023/11/07 21:35:50;;;;;;;8.43;1.90;;;;;7.80;100631.00;;;;10287337;28;20235;-70
2023/11/07 21:40:52;;;;;;;6.67;1.80;;;;;7.80;100637.00;;;;10329429;28;20965;-69
2023/11/07 21:45:54;;;;;;;5.10;1.90;;;;;7.70;100637.00;;;;10309285;28;20318;-69
2023/11/07 21:50:55;;;;;;;5.73;1.80;;;;;7.70;100642.00;;;;10308255;28;20769;-70
2023/11/07 21:55:57;;;;;;;3.53;2.03;;;;;7.70;100642.00;;;;10305202;28;20224;-71
2023/11/07 22:00:58;;;;;;;3.40;1.70;;;;;7.80;100650.00;;;;10310084;28;20306;-72
2023/11/07 22:05:59;;;;;;;5.33;1.90;;;;;7.80;100644.00;;;;10315828;28;20220;-72
2023/11/07 22:11:06;;;;;;;5.43;1.87;;;;;7.80;100651.00;;;;10312405;28;22019;-71
2023/11/07 22:16:08;;;;;;;4.93;1.70;;;;;7.80;100651.00;;;;10309379;28;20219;-71
2023/11/07 22:21:09;;;;;;;4.83;1.70;;;;;7.90;100654.00;;;;10299247;28;20311;-71
2023/11/07 22:26:10;;;;;;;5.07;1.93;;;;;8.00;100660.00;;;;10313690;28;20223;-71
2023/11/07 22:31:11;;;;;;;3.80;2.20;;;;;8.00;100664.00;;;;10319592;28;20582;-72
2023/11/07 22:36:13;;;;;;;5.03;1.97;;;;;7.90;100661.00;;;;10312935;28;20331;-72
2023/11/07 22:41:14;;;;;;;5.90;2.23;;;;;7.90;100664.00;;;;10309478;28;20422;-71
2023/11/07 22:46:15;;;;;;;4.43;1.97;;;;;7.90;100661.00;;;;10306574;28;20482;-72
2023/11/07 22:51:16;;;;;;;6.50;2.27;;;;;8.00;100664.00;;;;10305107;28;20595;-71
2023/11/07 22:56:18;;;;;;;4.77;1.83;;;;;8.10;100666.00;;;;10311482;28;20224;-71
2023/11/07 23:01:19;;;;;;;4.87;2.10;;;;;8.20;100659.00;;;;10323543;28;20223;-71
2023/11/07 23:06:20;;;;;;;6.57;2.00;;;;;8.10;100668.00;;;;10320348;28;20262;-70
2023/11/07 23:11:22;;;;;;;5.07;1.70;;;;;7.90;100670.00;;;;10302719;28;20224;-69
2023/11/07 23:16:23;;;;;;;5.20;1.80;;;;;7.80;100675.00;;;;10305627;28;20289;-70
2023/11/07 23:21:25;;;;;;;3.57;1.90;;;;;7.70;100670.00;;;;10304034;28;20228;-69
2023/11/07 23:26:27;;;;;;;3.63;1.70;;;;;7.70;100675.00;;;;10311240;28;20243;-70
2023/11/07 23:31:39;;;;;;;3.10;1.53;;;;;7.60;100678.00;;;;10306174;28;20755;-69
2023/11/07 23:36:40;;;;;;;5.83;2.23;;;;;7.60;100689.00;;;;10314126;28;20311;-70
2023/11/07 23:41:41;;;;;;;6.83;1.70;;;;;7.50;100691.00;;;;10307530;28;20718;-70
2023/11/07 23:46:45;;;;;;;3.43;1.50;;;;;7.50;100683.00;;;;10309356;28;20681;-69
2023/11/07 23:51:46;;;;;;;5.07;2.00;;;;;7.50;100683.00;;;;10326153;28;20237;-70
2023/11/07 23:56:47;;;;;;;4.87;1.60;;;;;7.50;100673.00;;;;10304073;28;20613;-69
